Time,TemperatureF,DewpointF,PressureIn,WindDirection,WindDirectionDegrees,WindSpeedMPH,WindSpeedGustMPH,Humidity,HourlyPrecipIn,Conditions,Clouds,dailyrainin,SoftwareType,DateUTC
2013-09-11 00:14:00,79.0,76.0,30.13,WSW,244,0.0,0.0,92,0.00,,,0.00,,2013-09-11 04:14:00,
2013-09-11 00:24:00,79.0,76.0,30.13,WSW,244,0.0,0.0,92,0.00,,,0.00,,2013-09-11 04:24:00,
2013-09-11 00:44:00,78.0,76.0,30.14,SW,231,0.0,0.0,93,0.00,,,0.00,,2013-09-11 04:44:00,
2013-09-11 00:54:00,78.0,75.0,30.13,SW,232,0.0,0.0,92,0.00,,,0.00,,2013-09-11 04:54:00,
2013-09-11 01:13:00,78.0,75.0,30.13,WSW,237,0.0,0.0,92,0.00,,,0.00,,2013-09-11 05:13:00,
2013-09-11 01:23:00,78.0,75.0,30.12,SW,228,0.0,0.0,92,0.00,,,0.00,,2013-09-11 05:23:00,
2013-09-11 01:53:00,78.0,75.0,30.12,WSW,251,0.0,0.0,92,0.00,,,0.00,,2013-09-11 05:53:00,
2013-09-11 02:12:00,78.0,76.0,30.12,SW,236,0.0,0.0,93,0.00,,,0.00,,2013-09-11 06:12:00,
2013-09-11 02:22:00,78.0,76.0,30.12,SW,222,0.0,0.0,93,0.00,,,0.00,,2013-09-11 06:22:00,
2013-09-11 02:42:00,78.0,75.0,30.11,WSW,240,0.0,0.0,92,0.00,,,0.00,,2013-09-11 06:42:00,
2013-09-11 02:52:00,78.0,75.0,30.11,SW,227,0.0,0.0,91,0.00,,,0.00,,2013-09-11 06:52:00,
2013-09-11 03:12:00,78.0,75.0,30.11,SW,226,0.0,0.0,91,0.00,,,0.00,,2013-09-11 07:12:00,
2013-09-11 03:24:00,78.0,75.0,30.11,SW,235,0.0,0.0,91,0.00,,,0.00,,2013-09-11 07:24:00,
2013-09-11 03:53:00,78.0,75.0,30.10,SW,227,0.0,0.0,90,0.00,,,0.00,,2013-09-11 07:53:00,
2013-09-11 04:12:00,77.0,74.0,30.10,SW,227,0.0,0.0,91,0.00,,,0.00,,2013-09-11 08:12:00,
2013-09-11 04:22:00,77.0,74.0,30.10,SW,227,0.0,0.0,91,0.00,,,0.00,,2013-09-11 08:22:00,
2013-09-11 04:52:00,77.0,74.0,30.09,SW,227,0.0,0.0,91,0.00,,,0.00,,2013-09-11 08:52:00,
2013-09-11 05:22:00,77.0,74.0,30.10,SW,232,0.0,0.0,92,0.00,,,0.00,,2013-09-11 09:22:00,
2013-09-11 05:53:00,77.0,74.0,30.10,SW,228,0.0,0.0,92,0.00,,,0.00,,2013-09-11 09:53:00,
2013-09-11 06:13:00,76.0,74.0,30.10,SW,220,0.0,0.0,92,0.00,,,0.00,,2013-09-11 10:13:00,
2013-09-11 06:23:00,76.0,74.0,30.10,SW,221,0.0,0.0,92,0.00,,,0.00,,2013-09-11 10:23:00,
2013-09-11 06:53:00,76.0,74.0,30.11,SW,218,0.0,0.0,92,0.00,,,0.00,,2013-09-11 10:53:00,
2013-09-11 07:12:00,76.0,74.0,30.12,SW,219,0.0,0.0,92,0.00,,,0.00,,2013-09-11 11:12:00,
2013-09-11 07:22:00,76.0,74.0,30.12,SW,214,0.0,0.0,92,0.00,,,0.00,,2013-09-11 11:22:00,
2013-09-11 07:52:00,76.0,73.0,30.13,SSW,213,0.0,0.0,91,0.00,,,0.00,,2013-09-11 11:52:00,
2013-09-11 08:11:00,76.0,73.0,30.13,SW,214,0.0,0.0,91,0.00,,,0.00,,2013-09-11 12:11:00,
2013-09-11 08:21:00,77.0,74.0,30.13,SW,214,0.0,0.0,91,0.00,,,0.00,,2013-09-11 12:21:00,
2013-09-11 08:52:00,78.0,74.0,30.13,SW,220,0.0,0.0,89,0.00,,,0.00,,2013-09-11 12:52:00,
2013-09-11 09:12:00,78.0,74.0,30.13,SW,220,0.0,0.0,88,0.00,,,0.00,,2013-09-11 13:12:00,
2013-09-11 09:22:00,79.0,75.0,30.13,SW,233,0.0,0.0,87,0.00,,,0.00,,2013-09-11 13:22:00,
2013-09-11 09:52:00,80.0,75.0,30.13,WSW,238,2.0,2.0,85,0.00,,,0.00,,2013-09-11 13:52:00,
2013-09-11 10:11:00,81.0,76.0,30.14,WSW,247,2.0,2.0,84,0.00,,,0.00,,2013-09-11 14:11:00,
2013-09-11 10:22:00,81.0,76.0,30.13,SW,234,2.0,2.0,84,0.00,,,0.00,,2013-09-11 14:22:00,
2013-09-11 10:52:00,81.0,76.0,30.13,WSW,254,4.0,4.0,84,0.00,,,0.00,,2013-09-11 14:52:00,
2013-09-11 11:22:00,81.0,75.0,30.12,SW,236,2.0,2.0,83,0.00,,,0.00,,2013-09-11 15:22:00,
2013-09-11 11:43:00,81.0,75.0,30.12,West,262,5.0,5.0,82,0.00,,,0.00,,2013-09-11 15:43:00,
2013-09-11 11:54:00,82.0,76.0,30.12,WSW,257,4.0,4.0,82,0.00,,,0.00,,2013-09-11 15:54:00,
2013-09-11 12:13:00,82.0,76.0,30.12,WSW,245,5.0,5.0,82,0.00,,,0.00,,2013-09-11 16:13:00,
2013-09-11 12:23:00,82.0,76.0,30.11,WSW,238,3.0,3.0,82,0.00,,,0.00,,2013-09-11 16:23:00,
2013-09-11 12:53:00,83.0,77.0,30.11,WSW,244,5.0,5.0,81,0.00,,,0.00,,2013-09-11 16:53:00,
2013-09-11 13:12:00,83.0,77.0,30.11,West,259,5.0,5.0,81,0.00,,,0.00,,2013-09-11 17:12:00,
2013-09-11 13:23:00,83.0,76.0,30.10,WSW,256,5.0,5.0,79,0.00,,,0.00,,2013-09-11 17:23:00,
2013-09-11 13:52:00,85.0,77.0,30.09,West,265,4.0,4.0,77,0.00,,,0.00,,2013-09-11 17:52:00,
2013-09-11 14:12:00,85.0,77.0,30.09,WSW,252,4.0,4.0,76,0.00,,,0.00,,2013-09-11 18:12:00,
2013-09-11 14:22:00,86.0,78.0,30.08,WSW,254,5.0,5.0,76,0.00,,,0.00,,2013-09-11 18:22:00,
2013-09-11 14:52:00,86.0,78.0,30.07,WSW,247,5.0,5.0,76,0.00,,,0.00,,2013-09-11 18:52:00,
2013-09-11 15:12:00,87.0,78.0,30.06,WSW,240,4.0,4.0,74,0.00,,,0.00,,2013-09-11 19:12:00,
2013-09-11 15:22:00,87.0,78.0,30.05,WSW,253,4.0,4.0,75,0.00,,,0.00,,2013-09-11 19:22:00,
2013-09-11 15:53:00,88.0,77.0,30.04,WSW,250,5.0,5.0,71,0.00,,,0.00,,2013-09-11 19:53:00,
2013-09-11 16:12:00,88.0,77.0,30.03,West,260,5.0,5.0,70,0.00,,,0.00,,2013-09-11 20:12:00,
2013-09-11 16:22:00,89.0,77.0,30.03,WSW,242,5.0,5.0,69,0.00,,,0.00,,2013-09-11 20:22:00,
2013-09-11 16:52:00,88.0,76.0,30.02,WSW,245,10.0,10.0,68,0.00,,,0.00,,2013-09-11 20:52:00,
2013-09-11 17:12:00,88.0,77.0,30.02,WSW,244,6.0,6.0,69,0.00,,,0.00,,2013-09-11 21:12:00,
2013-09-11 17:22:00,88.0,77.0,30.02,SW,225,8.0,8.0,71,0.00,,,0.00,,2013-09-11 21:22:00,
2013-09-11 17:54:00,87.0,76.0,30.01,WSW,254,6.0,6.0,71,0.00,,,0.00,,2013-09-11 21:54:00,
2013-09-11 18:13:00,87.0,76.0,30.02,West,274,6.0,6.0,71,0.00,,,0.00,,2013-09-11 22:13:00,
2013-09-11 18:24:00,87.0,78.0,30.01,WSW,244,3.0,3.0,74,0.00,,,0.00,,2013-09-11 22:24:00,
2013-09-11 18:54:00,85.0,78.0,30.02,WSW,241,6.0,6.0,79,0.00,,,0.00,,2013-09-11 22:54:00,
2013-09-11 19:12:00,84.0,77.0,30.02,WSW,256,6.0,6.0,79,0.00,,,0.00,,2013-09-11 23:12:00,
2013-09-11 19:22:00,84.0,77.0,30.02,WSW,240,3.0,3.0,79,0.00,,,0.00,,2013-09-11 23:22:00,
2013-09-11 19:53:00,83.0,77.0,30.02,West,259,4.0,4.0,81,0.00,,,0.00,,2013-09-11 23:53:00,
2013-09-11 20:11:00,83.0,77.0,30.02,SW,233,3.0,3.0,81,0.00,,,0.00,,2013-09-12 00:11:00,
2013-09-11 20:22:00,82.0,76.0,30.02,WSW,254,4.0,4.0,83,0.00,,,0.00,,2013-09-12 00:22:00,
2013-09-11 20:42:00,82.0,77.0,30.03,SW,235,3.0,3.0,84,0.00,,,0.00,,2013-09-12 00:42:00,
2013-09-11 20:52:00,82.0,76.0,30.03,WSW,250,5.0,5.0,83,0.00,,,0.00,,2013-09-12 00:52:00,
2013-09-11 21:11:00,81.0,75.0,30.03,WSW,242,0.0,0.0,82,0.00,,,0.00,,2013-09-12 01:11:00,
2013-09-11 21:22:00,81.0,75.0,30.03,SW,234,3.0,3.0,82,0.00,,,0.00,,2013-09-12 01:22:00,
2013-09-11 21:42:00,81.0,76.0,30.04,SW,228,0.0,0.0,84,0.00,,,0.00,,2013-09-12 01:42:00,
2013-09-11 21:52:00,81.0,77.0,30.03,WSW,245,3.0,3.0,87,0.00,,,0.00,,2013-09-12 01:52:00,
2013-09-11 22:12:00,80.0,76.0,30.03,SW,229,0.0,0.0,87,0.00,,,0.00,,2013-09-12 02:12:00,
2013-09-11 22:22:00,80.0,76.0,30.03,WSW,244,4.0,4.0,87,0.00,,,0.00,,2013-09-12 02:22:00,
2013-09-11 23:22:00,80.0,76.0,30.01,WSW,254,3.0,3.0,88,0.00,,,0.00,,2013-09-12 03:22:00,
2013-09-11 23:55:00,80.0,76.0,30.00,SW,235,2.0,2.0,88,0.00,,,0.00,,2013-09-12 03:55:00,